Time;durP1;ratioP1;P1;durP2;ratioP2;P2;SDS_P1;SDS_P2;PMS_P1;PMS_P2;Temp;Humidity;BMP_temperature;BMP_pressure;BME280_temperature;BME280_humidity;BME280_pressure;Samples;Min_cycle;Max_cycle;Signal;HPM_P1;HPM_P2
2022/07/12 00:01:25;;;;;;;1.33;1.10;;;25.20;70.70;;;;;;5090696;28;20906;-81
2022/07/12 00:03:52;;;;;;;1.10;0.90;;;25.10;70.60;;;;;;5092975;28;20527;-82
2022/07/12 00:06:19;;;;;;;1.00;0.80;;;25.10;70.60;;;;;;5093170;28;20444;-86
2022/07/12 00:08:46;;;;;;;1.07;0.90;;;25.10;70.60;;;;;;5093213;28;20539;-81
2022/07/12 00:11:13;;;;;;;1.10;1.00;;;25.10;70.60;;;;;;5075695;28;21007;-88
2022/07/12 00:13:39;;;;;;;1.00;0.80;;;25.20;70.70;;;;;;5075299;28;20820;-82
2022/07/12 00:16:08;;;;;;;1.20;1.00;;;25.10;70.60;;;;;;5082788;28;20471;-81
2022/07/12 00:18:35;;;;;;;1.27;0.90;;;25.20;70.70;;;;;;5093813;28;20476;-90
2022/07/12 00:21:02;;;;;;;1.10;0.90;;;25.10;70.60;;;;;;5094415;28;20602;-81
2022/07/12 00:23:29;;;;;;;1.00;0.80;;;25.10;70.60;;;;;;5083449;28;20528;-82
2022/07/12 00:25:55;;;;;;;1.00;0.80;;;25.10;70.60;;;;;;5090648;28;20489;-81
2022/07/12 00:28:22;;;;;;;1.47;1.00;;;25.10;70.60;;;;;;5079336;28;20540;-81
2022/07/12 00:30:49;;;;;;;1.10;1.00;;;25.10;70.60;;;;;;5091877;28;20440;-81
2022/07/12 00:33:17;;;;;;;1.07;0.93;;;25.10;70.60;;;;;;5074420;28;20469;-81
2022/07/12 00:35:44;;;;;;;3.97;0.90;;;25.10;70.50;;;;;;5087420;28;20541;-81
2022/07/12 00:38:11;;;;;;;1.20;0.90;;;25.10;70.60;;;;;;5074920;28;20459;-89
2022/07/12 00:40:38;;;;;;;1.10;0.87;;;25.10;70.50;;;;;;5088007;28;20566;-81
2022/07/12 00:43:05;;;;;;;1.00;0.90;;;25.10;70.50;;;;;;5077524;28;20445;-89
2022/07/12 00:45:32;;;;;;;1.00;0.90;;;25.10;70.50;;;;;;5092589;28;20515;-82
2022/07/12 00:48:00;;;;;;;1.00;0.90;;;25.10;70.50;;;;;;5078384;28;20460;-81
2022/07/12 00:50:28;;;;;;;1.10;1.00;;;25.10;70.50;;;;;;5091754;28;20470;-81
2022/07/12 00:52:56;;;;;;;1.30;0.90;;;25.10;70.50;;;;;;5095851;28;20440;-82
2022/07/12 00:55:24;;;;;;;1.40;0.80;;;25.10;70.50;;;;;;5080442;28;20866;-81
2022/07/12 00:57:52;;;;;;;1.20;0.80;;;25.10;70.50;;;;;;5074088;28;20472;-81
2022/07/12 01:00:22;;;;;;;1.00;0.90;;;25.10;70.50;;;;;;5090592;28;20515;-81
2022/07/12 01:02:49;;;;;;;1.00;0.80;;;25.10;70.50;;;;;;5089811;28;20468;-81
2022/07/12 01:05:16;;;;;;;1.00;0.80;;;25.10;70.50;;;;;;5084433;28;20759;-81
2022/07/12 01:07:46;;;;;;;1.57;1.00;;;25.10;70.50;;;;;;5079092;28;20532;-83
2022/07/12 01:10:13;;;;;;;1.47;0.90;;;25.10;70.50;;;;;;5078293;28;20823;-82
2022/07/12 01:12:40;;;;;;;1.83;0.80;;;25.10;70.50;;;;;;5089824;28;20444;-82
2022/07/12 01:15:08;;;;;;;0.90;0.70;;;25.10;70.50;;;;;;5076497;28;20527;-81
2022/07/12 01:17:36;;;;;;;1.27;0.90;;;25.10;70.40;;;;;;5085913;28;20539;-81
2022/07/12 01:20:05;;;;;;;1.00;0.80;;;25.10;70.50;;;;;;5078346;28;20831;-81
2022/07/12 01:22:34;;;;;;;1.00;0.80;;;25.10;70.40;;;;;;5073397;28;20932;-81
2022/07/12 01:25:05;;;;;;;1.17;1.07;;;25.10;70.40;;;;;;5077821;28;20535;-82
2022/07/12 01:27:32;;;;;;;1.20;1.00;;;25.10;70.40;;;;;;5093512;28;20515;-81
2022/07/12 01:30:01;;;;;;;1.00;0.80;;;25.10;70.40;;;;;;5073780;28;20439;-82
2022/07/12 01:32:29;;;;;;;1.00;0.90;;;25.10;70.40;;;;;;5074160;28;20429;-82
2022/07/12 01:34:57;;;;;;;0.93;0.73;;;25.10;70.40;;;;;;5077547;28;20462;-87
2022/07/12 01:37:26;;;;;;;1.10;0.93;;;25.10;70.40;;;;;;5093365;28;20432;-82
2022/07/12 01:39:55;;;;;;;1.10;1.00;;;25.10;70.40;;;;;;5079281;28;20571;-83
2022/07/12 01:42:24;;;;;;;1.00;0.90;;;25.10;70.40;;;;;;5072943;28;20527;-82
2022/07/12 01:44:52;;;;;;;1.00;0.83;;;25.10;70.40;;;;;;5089747;28;20436;-81
2022/07/12 01:47:19;;;;;;;1.00;0.80;;;25.10;70.30;;;;;;5073093;28;20480;-81
2022/07/12 01:49:46;;;;;;;1.00;0.80;;;25.10;70.40;;;;;;5086518;28;20965;-81
2022/07/12 01:52:13;;;;;;;1.20;0.97;;;25.10;70.40;;;;;;5077719;28;20878;-82
2022/07/12 01:54:41;;;;;;;0.90;0.80;;;25.10;70.40;;;;;;5084239;28;20444;-81
2022/07/12 01:57:08;;;;;;;1.00;0.73;;;25.10;70.30;;;;;;5093208;28;20589;-82
2022/07/12 01:59:37;;;;;;;0.90;0.70;;;25.10;70.30;;;;;;5074634;28;20561;-82
2022/07/12 02:02:04;;;;;;;1.00;0.80;;;25.10;70.40;;;;;;5087427;28;20444;-82
2022/07/12 02:04:31;;;;;;;1.00;0.83;;;25.10;70.40;;;;;;5086610;28;20869;-82
2022/07/12 02:06:58;;;;;;;0.97;0.80;;;25.10;70.30;;;;;;5091019;28;20527;-82
2022/07/12 02:09:25;;;;;;;1.10;1.00;;;25.00;70.30;;;;;;5092041;28;20522;-90
2022/07/12 02:11:52;;;;;;;1.03;0.83;;;25.10;70.30;;;;;;5091609;28;20554;-84
2022/07/12 02:14:19;;;;;;;1.10;0.90;;;25.00;70.30;;;;;;5080438;28;20445;-82
2022/07/12 02:16:47;;;;;;;1.00;0.80;;;25.10;70.30;;;;;;5084505;28;20440;-87
2022/07/12 02:19:15;;;;;;;1.07;0.80;;;25.10;70.30;;;;;;5083839;28;20930;-87
2022/07/12 02:21:42;;;;;;;1.10;0.90;;;25.10;70.40;;;;;;5072872;28;20498;-82
2022/07/12 02:24:09;;;;;;;1.10;1.00;;;25.00;70.30;;;;;;5079837;28;20527;-82
2022/07/12 02:26:37;;;;;;;0.90;0.73;;;25.00;70.30;;;;;;5080460;28;20543;-91
2022/07/12 02:29:04;;;;;;;1.10;0.80;;;25.10;70.30;;;;;;5079785;28;20531;-81
2022/07/12 02:31:32;;;;;;;1.00;0.80;;;25.00;70.20;;;;;;5081002;28;20528;-82
2022/07/12 02:34:00;;;;;;;1.00;0.70;;;25.10;70.30;;;;;;5083511;28;20475;-81
2022/07/12 02:36:28;;;;;;;1.03;0.80;;;25.10;70.30;;;;;;5092375;28;20441;-82
2022/07/12 02:38:55;;;;;;;1.10;0.90;;;25.10;70.20;;;;;;5095553;28;20527;-82
2022/07/12 02:41:22;;;;;;;0.90;0.70;;;25.00;70.20;;;;;;5096246;28;20579;-82
2022/07/12 02:43:49;;;;;;;1.37;0.93;;;25.10;70.20;;;;;;5083581;28;20449;-90
2022/07/12 02:46:15;;;;;;;1.10;0.80;;;25.00;70.20;;;;;;5091655;28;20440;-82
2022/07/12 02:48:43;;;;;;;1.03;0.80;;;25.00;70.20;;;;;;5092780;28;20468;-90
2022/07/12 02:51:11;;;;;;;1.20;0.77;;;25.00;70.20;;;;;;5092936;28;20528;-86
2022/07/12 02:53:39;;;;;;;1.00;0.87;;;25.00;70.20;;;;;;5091822;28;20528;-81
2022/07/12 02:56:06;;;;;;;1.00;0.90;;;25.10;70.20;;;;;;5075808;28;20487;-82
2022/07/12 02:58:34;;;;;;;1.00;0.80;;;25.00;70.20;;;;;;5075779;28;20487;-81
2022/07/12 03:01:01;;;;;;;1.00;0.80;;;25.00;70.20;;;;;;5075641;28;20571;-81
2022/07/12 03:03:28;;;;;;;1.00;0.90;;;25.00;70.20;;;;;;5086569;28;20523;-81
2022/07/12 03:05:55;;;;;;;1.00;0.80;;;25.00;70.20;;;;;;5081518;28;21015;-90
2022/07/12 03:08:23;;;;;;;1.10;0.90;;;25.00;70.10;;;;;;5077322;28;20437;-81
2022/07/12 03:10:50;;;;;;;1.00;0.80;;;25.00;70.20;;;;;;5075418;28;20469;-82
2022/07/12 03:13:18;;;;;;;1.10;0.90;;;25.00;70.20;;;;;;5090073;28;20520;-91
2022/07/12 03:15:45;;;;;;;1.03;0.83;;;25.00;70.20;;;;;;5076367;28;20443;-82
2022/07/12 03:18:13;;;;;;;1.10;0.80;;;25.00;70.10;;;;;;5075508;28;20479;-81
2022/07/12 03:20:39;;;;;;;0.90;0.80;;;25.00;70.10;;;;;;5084798;28;20498;-90
2022/07/12 03:23:06;;;;;;;1.43;0.90;;;25.00;70.10;;;;;;5094854;28;20531;-81
2022/07/12 03:25:35;;;;;;;1.10;0.90;;;25.00;70.10;;;;;;5092986;28;20551;-81
2022/07/12 03:28:02;;;;;;;1.10;0.90;;;25.00;70.10;;;;;;5095338;28;20490;-81
2022/07/12 03:30:29;;;;;;;1.00;0.80;;;25.00;70.10;;;;;;5091228;28;20440;-82
2022/07/12 03:32:55;;;;;;;0.97;0.80;;;25.00;70.10;;;;;;5076342;28;20443;-81
2022/07/12 03:35:22;;;;;;;1.00;0.80;;;25.00;70.10;;;;;;5075337;28;20536;-81
2022/07/12 03:37:51;;;;;;;1.00;0.70;;;25.00;70.10;;;;;;5076037;28;20872;-81
2022/07/12 03:40:20;;;;;;;0.93;0.77;;;25.00;70.00;;;;;;5093388;28;20579;-81
2022/07/12 03:42:49;;;;;;;1.10;0.83;;;25.00;70.10;;;;;;5089082;28;20453;-81
2022/07/12 03:45:16;;;;;;;1.00;0.80;;;25.00;70.10;;;;;;5083494;28;20528;-85
2022/07/12 03:47:43;;;;;;;1.00;0.90;;;25.00;70.10;;;;;;5078753;28;20523;-91
2022/07/12 03:50:12;;;;;;;1.00;0.80;;;25.00;70.10;;;;;;5097505;28;20480;-90
2022/07/12 03:52:39;;;;;;;1.70;0.83;;;25.00;70.00;;;;;;5080157;28;20464;-88
2022/07/12 03:55:07;;;;;;;1.00;0.80;;;25.00;70.10;;;;;;5087059;28;21043;-88
2022/07/12 03:57:34;;;;;;;1.00;0.90;;;25.00;70.00;;;;;;5094593;28;20531;-82
2022/07/12 04:00:04;;;;;;;1.00;0.90;;;25.00;70.00;;;;;;5090565;28;20562;-81
2022/07/12 04:02:31;;;;;;;1.03;0.90;;;25.00;70.00;;;;;;5079951;28;20441;-80
2022/07/12 04:04:58;;;;;;;0.90;0.73;;;25.00;70.10;;;;;;5089669;28;20527;-80
2022/07/12 04:07:24;;;;;;;1.20;1.10;;;25.00;70.00;;;;;;5074454;28;20469;-80
2022/07/12 04:09:51;;;;;;;1.00;0.83;;;25.00;70.00;;;;;;5079152;28;21239;-81
2022/07/12 04:12:18;;;;;;;1.10;1.00;;;25.00;70.00;;;;;;5082906;28;20998;-81
2022/07/12 04:14:45;;;;;;;1.00;0.80;;;25.00;70.00;;;;;;5086325;28;20480;-90
2022/07/12 04:17:13;;;;;;;1.00;0.90;;;25.00;70.00;;;;;;5095170;28;20863;-90
2022/07/12 04:19:40;;;;;;;0.93;0.70;;;25.00;70.00;;;;;;5084242;28;20930;-81
2022/07/12 04:22:07;;;;;;;1.00;0.80;;;25.00;70.00;;;;;;5079570;28;20528;-90
2022/07/12 04:24:33;;;;;;;1.00;0.80;;;25.00;70.00;;;;;;5085722;28;20539;-81
2022/07/12 04:27:01;;;;;;;1.00;0.80;;;25.00;70.10;;;;;;5086342;28;20449;-93
2022/07/12 15:56:10;;;;;;;2.60;2.40;;;25.30;73.40;;;;;;5067389;28;20475;-83
2022/07/12 15:58:38;;;;;;;2.77;2.57;;;25.30;73.40;;;;;;5074292;28;20455;-83
2022/07/12 16:01:06;;;;;;;2.30;2.10;;;25.30;73.40;;;;;;5073646;28;20495;-82
2022/07/12 16:03:33;;;;;;;2.50;2.30;;;25.20;73.30;;;;;;5074441;28;20441;-83
2022/07/12 16:06:02;;;;;;;2.67;2.00;;;25.40;74.00;;;;;;5074782;28;20444;-83
2022/07/12 16:08:30;;;;;;;2.10;2.00;;;25.30;74.10;;;;;;5074835;28;20452;-87
2022/07/12 16:10:57;;;;;;;2.73;2.53;;;25.30;73.10;;;;;;5074799;28;20476;-83
2022/07/12 16:13:25;;;;;;;2.60;2.40;;;25.40;73.20;;;;;;5075004;28;20440;-94
2022/07/12 16:15:52;;;;;;;2.00;1.90;;;25.40;73.10;;;;;;5074511;28;20962;-94
2022/07/12 16:18:19;;;;;;;2.70;2.50;;;25.40;73.10;;;;;;5074690;28;20432;-85
2022/07/12 16:20:46;;;;;;;2.60;2.40;;;25.40;73.20;;;;;;5074705;28;20473;-83
2022/07/12 16:23:14;;;;;;;2.57;2.37;;;25.40;73.10;;;;;;5073651;28;20441;-94
2022/07/12 16:25:41;;;;;;;2.27;2.17;;;25.40;73.10;;;;;;5073389;28;20453;-82
2022/07/12 16:28:08;;;;;;;2.40;2.20;;;25.40;73.10;;;;;;5073187;28;20433;-83
2022/07/12 16:30:37;;;;;;;2.17;2.07;;;25.40;73.20;;;;;;5074613;28;20936;-82
2022/07/12 16:33:05;;;;;;;2.03;1.93;;;25.40;73.20;;;;;;5072447;28;20987;-82
2022/07/12 16:35:32;;;;;;;3.20;2.50;;;25.40;73.20;;;;;;5072814;28;20540;-82
2022/07/12 16:37:59;;;;;;;2.43;2.10;;;25.40;73.10;;;;;;5073403;28;20488;-84
2022/07/12 16:40:26;;;;;;;2.23;1.90;;;25.40;73.10;;;;;;5074264;28;20529;-81
2022/07/12 16:42:54;;;;;;;1.93;1.83;;;25.40;73.20;;;;;;5074485;28;20471;-82
2022/07/12 16:45:21;;;;;;;2.90;2.20;;;25.40;73.10;;;;;;5073979;28;20472;-87
2022/07/12 16:47:50;;;;;;;2.20;2.10;;;25.40;73.10;;;;;;5074398;28;20433;-94
2022/07/12 16:50:16;;;;;;;2.20;2.03;;;25.40;73.20;;;;;;5073531;28;20856;-85
2022/07/12 16:52:44;;;;;;;1.90;1.80;;;25.40;73.10;;;;;;5075013;28;20531;-85
2022/07/12 16:55:11;;;;;;;1.87;1.77;;;25.40;73.10;;;;;;5077581;28;20477;-86
2022/07/12 16:57:38;;;;;;;2.00;1.80;;;25.40;73.00;;;;;;5073855;28;20531;-83
2022/07/12 17:00:09;;;;;;;2.23;2.03;;;25.40;73.00;;;;;;5072408;28;20535;-83
2022/07/12 17:02:37;;;;;;;2.10;1.90;;;25.40;72.90;;;;;;5072422;28;20531;-83
2022/07/12 17:05:07;;;;;;;2.03;1.80;;;25.40;72.90;;;;;;5073014;28;20839;-93
2022/07/12 17:07:33;;;;;;;2.03;1.83;;;25.40;72.90;;;;;;5073426;28;20543;-87
2022/07/12 17:10:01;;;;;;;2.80;2.50;;;25.40;72.80;;;;;;5072995;28;20991;-91
2022/07/12 17:12:28;;;;;;;2.57;2.37;;;25.40;72.90;;;;;;5073617;28;20536;-83
2022/07/12 17:14:54;;;;;;;2.10;1.63;;;25.40;72.90;;;;;;5073578;28;20958;-84
2022/07/12 17:17:23;;;;;;;2.10;2.00;;;25.40;73.00;;;;;;5073710;28;20433;-81
2022/07/12 17:19:50;;;;;;;2.13;1.90;;;25.40;73.00;;;;;;5073665;28;20841;-86
2022/07/12 17:22:19;;;;;;;2.30;2.10;;;25.40;73.10;;;;;;5073436;28;20575;-81
2022/07/12 17:24:46;;;;;;;1.97;1.87;;;25.40;74.00;;;;;;5073489;28;21031;-81
2022/07/12 17:27:13;;;;;;;1.83;1.73;;;25.40;73.00;;;;;;5073564;28;20440;-81
2022/07/12 17:29:40;;;;;;;2.07;1.87;;;25.40;73.00;;;;;;5073513;28;20878;-94
2022/07/12 17:32:07;;;;;;;2.03;1.93;;;25.40;72.90;;;;;;5073303;28;20979;-81
2022/07/12 17:34:34;;;;;;;2.10;1.90;;;25.40;72.90;;;;;;5073481;28;20799;-89
2022/07/12 17:37:01;;;;;;;2.47;1.73;;;25.40;73.70;;;;;;5073382;28;20520;-81
2022/07/12 17:39:29;;;;;;;2.17;2.00;;;25.50;73.00;;;;;;5073461;28;20498;-81
2022/07/12 17:41:56;;;;;;;2.07;1.87;;;25.40;73.70;;;;;;5074625;28;20481;-88
2022/07/12 17:44:24;;;;;;;1.53;1.43;;;25.40;72.80;;;;;;5077415;28;20455;-87
2022/07/12 17:46:54;;;;;;;1.60;1.50;;;25.40;73.00;;;;;;5091962;28;20934;-87
2022/07/12 17:49:21;;;;;;;2.13;1.83;;;25.40;73.00;;;;;;5074196;28;20471;-93
2022/07/12 17:51:48;;;;;;;4.10;2.00;;;25.40;73.00;;;;;;5074046;28;20448;-92
2022/07/12 17:54:15;;;;;;;2.77;2.57;;;25.40;73.10;;;;;;5072847;28;20464;-88
2022/07/12 17:56:43;;;;;;;2.30;2.10;;;25.40;73.10;;;;;;5072914;28;20437;-88
2022/07/12 17:59:10;;;;;;;6.23;2.20;;;25.40;73.10;;;;;;5073103;28;20449;-92
2022/07/12 18:01:37;;;;;;;3.83;2.00;;;25.40;73.00;;;;;;5073121;28;20563;-92
2022/07/12 18:04:04;;;;;;;5.43;1.70;;;25.50;73.00;;;;;;5073403;28;20544;-88
2022/07/12 18:06:33;;;;;;;2.40;2.13;;;25.40;72.90;;;;;;5073908;28;20519;-87
2022/07/12 18:08:59;;;;;;;1.97;1.77;;;25.50;73.10;;;;;;5077026;28;21077;-88
2022/07/12 18:19:40;;;;;;;1.97;1.77;;;25.40;73.20;;;;;;5076593;28;20547;-90
2022/07/12 18:22:07;;;;;;;1.97;1.77;;;25.40;73.10;;;;;;5076773;28;20506;-91
2022/07/12 18:24:34;;;;;;;2.53;2.00;;;25.40;73.10;;;;;;5076580;28;20879;-91
2022/07/12 18:27:01;;;;;;;2.30;2.10;;;25.40;73.00;;;;;;5076295;28;20441;-89
2022/07/12 18:29:30;;;;;;;3.20;1.67;;;25.40;73.00;;;;;;5077897;28;20540;-90
2022/07/12 18:31:57;;;;;;;2.00;1.83;;;25.40;73.10;;;;;;5076859;28;20465;-93
2022/07/12 18:34:23;;;;;;;2.43;1.90;;;25.40;73.10;;;;;;5076837;28;20453;-91
2022/07/12 18:36:50;;;;;;;2.00;1.80;;;25.40;73.20;;;;;;5076804;28;21010;-92
2022/07/12 18:39:17;;;;;;;2.70;1.90;;;25.40;73.20;;;;;;5076876;28;20878;-88
2022/07/12 18:41:44;;;;;;;2.00;1.90;;;25.40;73.10;;;;;;5075903;28;20487;-88
2022/07/12 18:44:11;;;;;;;2.30;1.50;;;25.40;73.10;;;;;;5076273;28;20449;-92
2022/07/12 18:46:39;;;;;;;2.00;1.80;;;25.40;73.10;;;;;;5076299;28;20439;-88
2022/07/12 18:49:06;;;;;;;2.60;1.97;;;25.50;73.10;;;;;;5076296;28;20444;-88
2022/07/12 18:51:33;;;;;;;2.00;1.90;;;25.50;73.20;;;;;;5076288;28;20445;-88
2022/07/12 18:54:00;;;;;;;2.57;2.00;;;25.50;73.10;;;;;;5076634;28;20551;-89
2022/07/12 18:56:27;;;;;;;1.80;1.70;;;25.40;73.00;;;;;;5076117;28;20468;-91
2022/07/12 18:58:54;;;;;;;2.00;1.60;;;25.40;73.20;;;;;;5075824;28;20531;-90
2022/07/12 19:01:21;;;;;;;3.10;1.87;;;25.50;73.30;;;;;;5075936;28;20508;-89
2022/07/12 19:03:50;;;;;;;4.23;1.90;;;25.40;73.20;;;;;;5075946;28;20939;-88
2022/07/12 19:06:17;;;;;;;1.97;1.60;;;25.50;74.10;;;;;;5076203;28;20444;-90
2022/07/12 19:08:44;;;;;;;5.73;2.17;;;25.50;74.20;;;;;;5075768;28;21304;-91
2022/07/12 19:11:11;;;;;;;2.20;2.00;;;25.50;73.30;;;;;;5075744;28;20536;-90
2022/07/12 19:13:38;;;;;;;1.80;1.70;;;25.50;74.20;;;;;;5075655;28;20500;-90
2022/07/12 19:16:05;;;;;;;1.57;1.47;;;25.50;73.40;;;;;;5075873;28;20444;-86
2022/07/12 19:18:32;;;;;;;2.37;1.83;;;25.50;73.50;;;;;;5074977;28;20440;-88
2022/07/12 19:21:01;;;;;;;3.20;1.70;;;25.40;73.40;;;;;;5075982;28;20437;-90
2022/07/12 19:23:27;;;;;;;2.03;1.70;;;25.50;73.50;;;;;;5075854;28;20488;-91
2022/07/12 19:25:54;;;;;;;2.63;1.77;;;25.50;73.40;;;;;;5075743;28;20448;-92
2022/07/12 19:28:21;;;;;;;2.20;1.63;;;25.50;73.40;;;;;;5075907;28;20524;-90
2022/07/12 19:30:48;;;;;;;2.23;1.70;;;25.50;73.40;;;;;;5077107;28;20517;-96
2022/07/12 19:33:15;;;;;;;1.47;1.30;;;25.50;74.20;;;;;;5075581;28;20529;-89
2022/07/12 19:35:42;;;;;;;1.80;1.70;;;25.50;73.20;;;;;;5075670;28;20440;-88
2022/07/12 19:38:10;;;;;;;4.30;1.77;;;25.50;74.20;;;;;;5075435;28;20443;-88
2022/07/12 19:40:37;;;;;;;3.43;2.00;;;25.50;73.30;;;;;;5075221;28;20468;-87
2022/07/12 19:43:05;;;;;;;2.53;1.77;;;25.50;73.30;;;;;;5075142;28;20554;-88
2022/07/12 19:45:32;;;;;;;2.23;1.87;;;25.50;73.30;;;;;;5073928;28;20449;-89
2022/07/12 19:47:58;;;;;;;2.97;1.73;;;25.50;73.30;;;;;;5075306;28;20437;-90
2022/07/12 19:50:25;;;;;;;3.70;1.63;;;25.50;73.30;;;;;;5075325;28;20861;-83
2022/07/12 19:52:53;;;;;;;1.83;1.60;;;25.50;73.30;;;;;;5075285;28;20528;-94
2022/07/12 19:55:21;;;;;;;1.70;1.47;;;25.50;73.30;;;;;;5075240;28;20476;-90
2022/07/12 19:57:48;;;;;;;2.43;1.80;;;25.50;73.30;;;;;;5074896;28;20432;-91
2022/07/12 20:00:16;;;;;;;2.67;1.70;;;25.50;73.30;;;;;;5079484;28;20435;-91
2022/07/12 20:02:43;;;;;;;2.37;1.50;;;25.50;73.30;;;;;;5074462;28;20518;-89
2022/07/12 20:05:10;;;;;;;1.70;1.60;;;25.50;73.20;;;;;;5074731;28;20440;-88
2022/07/12 20:07:37;;;;;;;2.90;1.87;;;25.50;73.20;;;;;;5074708;28;20449;-92
2022/07/12 20:10:04;;;;;;;3.80;1.77;;;25.50;73.20;;;;;;5074687;28;20465;-89
2022/07/12 20:12:33;;;;;;;2.33;2.13;;;25.50;73.10;;;;;;5074495;28;20445;-90
2022/07/12 20:15:00;;;;;;;3.63;1.90;;;25.50;73.10;;;;;;5077089;28;20465;-90
2022/07/12 20:17:26;;;;;;;1.90;1.70;;;25.50;73.10;;;;;;5076182;28;20464;-92
2022/07/12 20:19:54;;;;;;;5.40;1.80;;;25.50;73.20;;;;;;5074605;28;20520;-88
2022/07/12 20:22:20;;;;;;;2.77;1.77;;;25.50;73.20;;;;;;5074429;28;20575;-88
2022/07/12 20:24:47;;;;;;;1.80;1.60;;;25.50;73.20;;;;;;5074896;28;20464;-88
2022/07/12 20:27:14;;;;;;;3.97;1.87;;;25.50;73.20;;;;;;5074985;28;20432;-87
2022/07/12 20:29:42;;;;;;;2.57;1.57;;;25.50;73.20;;;;;;5074622;28;20443;-88
2022/07/12 20:32:10;;;;;;;2.60;1.60;;;25.50;73.20;;;;;;5075292;28;20543;-91
2022/07/12 20:34:36;;;;;;;2.93;1.80;;;25.50;73.30;;;;;;5076281;28;20480;-91
2022/07/12 20:37:05;;;;;;;3.63;1.93;;;25.60;73.40;;;;;;5076126;28;20452;-93
2022/07/12 20:39:34;;;;;;;5.10;1.80;;;25.50;73.30;;;;;;5075423;28;20254;-88
2022/07/12 20:42:03;;;;;;;3.13;1.53;;;25.60;73.40;;;;;;5075462;28;20564;-92
2022/07/12 20:44:30;;;;;;;2.70;1.67;;;25.50;73.30;;;;;;5075465;28;20464;-92
2022/07/12 20:46:59;;;;;;;2.63;1.80;;;25.50;73.30;;;;;;5082214;28;20443;-87
2022/07/12 20:49:28;;;;;;;1.80;1.70;;;25.60;73.50;;;;;;5094892;28;20482;-88
2022/07/12 20:51:56;;;;;;;2.03;1.60;;;25.40;73.30;;;;;;5095492;28;20494;-89
2022/07/12 20:54:24;;;;;;;2.30;1.77;;;25.50;73.50;;;;;;5091116;28;20567;-89
2022/07/12 20:56:53;;;;;;;1.70;1.60;;;25.50;73.50;;;;;;5076229;28;20524;-92
2022/07/12 20:59:21;;;;;;;1.60;1.50;;;25.50;73.50;;;;;;5073357;28;20459;-91
2022/07/12 21:01:50;;;;;;;3.10;1.53;;;25.50;73.50;;;;;;5079401;28;20511;-91
2022/07/12 21:04:20;;;;;;;1.87;1.77;;;25.60;73.50;;;;;;5086386;28;20493;-91
2022/07/12 21:06:47;;;;;;;2.17;1.80;;;25.60;73.50;;;;;;5089120;28;20800;-89
2022/07/12 21:09:14;;;;;;;3.20;1.83;;;25.50;73.40;;;;;;5082677;28;20457;-91
2022/07/12 21:11:41;;;;;;;2.20;2.10;;;25.50;73.40;;;;;;5074015;28;20514;-90
2022/07/12 21:14:09;;;;;;;2.80;1.73;;;25.50;73.40;;;;;;5088084;28;20897;-92
2022/07/12 21:16:38;;;;;;;2.20;2.00;;;25.50;73.30;;;;;;5092362;28;22343;-91
2022/07/12 21:19:07;;;;;;;1.90;1.70;;;25.60;73.40;;;;;;5082098;28;20436;-88
2022/07/12 21:21:35;;;;;;;2.90;1.90;;;25.60;73.30;;;;;;5079134;28;20862;-88
2022/07/12 21:24:03;;;;;;;2.90;1.60;;;25.50;73.30;;;;;;5090141;28;20516;-89
2022/07/12 21:26:30;;;;;;;4.03;1.70;;;25.60;73.30;;;;;;5075501;28;20479;-89
2022/07/12 21:28:58;;;;;;;2.47;1.70;;;25.50;74.00;;;;;;5085156;28;20462;-89
2022/07/12 21:31:26;;;;;;;2.37;1.80;;;25.60;73.30;;;;;;5075457;28;20812;-89
2022/07/12 21:33:54;;;;;;;7.53;1.90;;;25.60;73.20;;;;;;5089670;28;20536;-91
2022/07/12 21:36:21;;;;;;;4.00;1.97;;;25.50;73.10;;;;;;5074088;28;20852;-90
2022/07/12 21:38:49;;;;;;;1.70;1.50;;;25.60;73.10;;;;;;5073881;28;20553;-93
2022/07/12 21:41:16;;;;;;;2.23;1.73;;;25.60;73.10;;;;;;5074143;28;20445;-93
2022/07/12 21:43:43;;;;;;;2.37;1.83;;;25.50;73.00;;;;;;5077893;28;20528;-91
2022/07/12 21:46:11;;;;;;;2.40;2.20;;;25.60;73.10;;;;;;5078108;28;20957;-90
2022/07/12 21:48:38;;;;;;;1.90;1.80;;;25.60;73.10;;;;;;5078950;28;20777;-92
2022/07/12 21:51:05;;;;;;;1.87;1.77;;;25.50;73.10;;;;;;5077982;28;20535;-92
2022/07/12 21:53:32;;;;;;;1.93;1.63;;;25.60;73.20;;;;;;5077749;28;20539;-88
2022/07/12 21:56:01;;;;;;;2.60;1.50;;;25.50;73.10;;;;;;5077294;28;20946;-92
2022/07/12 21:58:28;;;;;;;2.20;2.00;;;25.60;73.10;;;;;;5078175;28;20831;-89
2022/07/12 22:00:55;;;;;;;1.67;1.57;;;25.50;73.00;;;;;;5078028;28;20539;-87
2022/07/12 22:03:23;;;;;;;1.80;1.70;;;25.50;73.10;;;;;;5077866;28;20487;-89
2022/07/12 22:05:50;;;;;;;1.90;1.63;;;25.60;73.20;;;;;;5077910;28;20912;-92
2022/07/12 22:08:16;;;;;;;2.13;2.00;;;25.50;73.10;;;;;;5077286;28;20489;-91
2022/07/12 22:10:43;;;;;;;2.87;2.23;;;25.50;73.10;;;;;;5091469;28;20531;-85
2022/07/12 22:13:11;;;;;;;1.73;1.63;;;25.50;73.10;;;;;;5098098;28;20590;-88
2022/07/12 22:15:38;;;;;;;2.93;2.10;;;25.50;73.30;;;;;;5097631;28;20507;-89
2022/07/12 22:18:05;;;;;;;2.43;1.80;;;25.50;73.30;;;;;;5078464;28;20472;-88
2022/07/12 22:20:32;;;;;;;1.80;1.70;;;25.50;73.20;;;;;;5077446;28;20790;-87
2022/07/12 22:22:59;;;;;;;1.63;1.53;;;25.50;73.10;;;;;;5094605;28;21045;-88
2022/07/12 22:25:26;;;;;;;2.27;2.07;;;25.50;73.10;;;;;;5120905;28;20427;-88
2022/07/12 22:27:53;;;;;;;1.70;1.60;;;25.50;73.00;;;;;;5122136;28;20506;-88
2022/07/12 22:30:21;;;;;;;2.20;2.00;;;25.50;73.00;;;;;;5107837;28;20457;-88
2022/07/12 22:32:48;;;;;;;3.23;1.63;;;25.60;73.10;;;;;;5078048;28;20532;-89
2022/07/12 22:35:14;;;;;;;1.90;1.80;;;25.60;73.20;;;;;;5077383;28;20476;-87
2022/07/12 22:37:42;;;;;;;2.07;1.80;;;25.60;73.10;;;;;;5077047;28;20447;-89
2022/07/12 22:40:11;;;;;;;2.70;1.70;;;25.50;73.00;;;;;;5077064;28;20484;-88
2022/07/12 22:42:37;;;;;;;2.00;1.90;;;25.50;73.10;;;;;;5076852;28;20472;-88
2022/07/12 22:45:05;;;;;;;1.80;1.70;;;25.50;73.20;;;;;;5076692;28;20532;-89
2022/07/12 22:47:33;;;;;;;2.03;1.90;;;25.60;73.20;;;;;;5077095;28;20449;-89
2022/07/12 22:50:00;;;;;;;2.10;2.00;;;25.50;73.10;;;;;;5076980;28;20539;-90
2022/07/12 22:52:26;;;;;;;3.30;2.00;;;25.50;73.10;;;;;;5077888;28;20472;-90
2022/07/12 22:54:54;;;;;;;2.00;1.80;;;25.50;73.10;;;;;;5097031;28;20470;-88
2022/07/12 22:57:21;;;;;;;1.60;1.50;;;25.60;73.20;;;;;;5096904;28;20448;-87
2022/07/12 22:59:48;;;;;;;1.70;1.60;;;25.50;73.00;;;;;;5096957;28;20436;-90
2022/07/12 23:02:15;;;;;;;1.60;1.50;;;25.50;73.10;;;;;;5096604;28;20443;-88
2022/07/12 23:04:43;;;;;;;1.70;1.60;;;25.60;73.10;;;;;;5096931;28;20446;-88
2022/07/12 23:07:10;;;;;;;1.50;1.40;;;25.50;73.10;;;;;;5084831;28;20476;-90
2022/07/12 23:09:37;;;;;;;1.50;1.40;;;25.50;73.10;;;;;;5076209;28;20544;-89
2022/07/12 23:12:04;;;;;;;1.90;1.80;;;25.60;73.20;;;;;;5086313;28;20527;-87
2022/07/12 23:14:31;;;;;;;1.73;1.63;;;25.60;73.20;;;;;;5096412;28;20448;-90
2022/07/12 23:16:58;;;;;;;1.73;1.63;;;25.50;73.10;;;;;;5096309;28;20933;-89
2022/07/12 23:19:25;;;;;;;1.60;1.50;;;25.50;73.20;;;;;;5096461;28;20442;-87
2022/07/12 23:21:53;;;;;;;2.37;1.60;;;25.50;73.10;;;;;;5096185;28;20982;-87
2022/07/12 23:24:20;;;;;;;1.67;1.50;;;25.60;73.20;;;;;;5096280;28;20571;-89
2022/07/12 23:26:47;;;;;;;1.60;1.50;;;25.60;73.20;;;;;;5096520;28;20543;-86
2022/07/12 23:29:14;;;;;;;2.10;1.90;;;25.50;74.00;;;;;;5096449;28;20530;-87
2022/07/12 23:31:41;;;;;;;1.87;1.77;;;25.50;73.20;;;;;;5096292;28;20501;-89
2022/07/12 23:34:08;;;;;;;1.63;1.53;;;25.50;73.30;;;;;;5096013;28;20542;-87
2022/07/12 23:36:36;;;;;;;1.83;1.73;;;25.60;73.30;;;;;;5095839;28;20474;-87
2022/07/12 23:39:04;;;;;;;1.77;1.67;;;25.50;73.30;;;;;;5096126;28;20495;-89
2022/07/12 23:41:31;;;;;;;1.60;1.50;;;25.50;73.30;;;;;;5095310;28;20539;-87
2022/07/12 23:43:58;;;;;;;2.20;2.10;;;25.60;73.30;;;;;;5095635;28;21053;-86
2022/07/12 23:46:25;;;;;;;1.60;1.50;;;25.50;73.20;;;;;;5095727;28;20508;-89
2022/07/12 23:48:52;;;;;;;2.07;1.90;;;25.60;73.30;;;;;;5095739;28;20454;-88
2022/07/12 23:51:18;;;;;;;2.40;2.20;;;25.60;73.30;;;;;;5095928;28;20542;-90
2022/07/12 23:53:45;;;;;;;1.53;1.43;;;25.50;73.30;;;;;;5095009;28;20436;-90
2022/07/12 23:56:14;;;;;;;1.60;1.50;;;25.50;73.20;;;;;;5091418;28;20512;-89
2022/07/12 23:58:41;;;;;;;2.03;1.83;;;25.50;73.20;;;;;;5075388;28;20477;-87
